This is the latest recevied weather packets stored in our database for station/object SP9MUF-14. If no packets are shown the sender has not sent any weather packets the latest 10 day(s).
| Time | Temp. | Humidity | Pressure | Rain* | Wind** | Luminosity | Snow |
|---|---|---|---|---|---|---|---|
| 1788528745 | 23.89° C | 52% | 1012.3 hPa | 0 mm | - | 96 W/m² | - |
| 1788528443 | 23.89° C | 52% | 1012.3 hPa | 0 mm | - | 169 W/m² | - |
| 1788528141 | 23.89° C | 52% | 1012.4 hPa | 0 mm | - | 96 W/m² | - |
| 1788203309 | 22.78° C | 69% | 1014.1 hPa | 0 mm | - | 0 W/m² | - |
| 1788203007 | 22.78° C | 69% | 1014.1 hPa | 0 mm | - | 0 W/m² | - |
| 1788202704 | 22.78° C | 69% | 1014.1 hPa | 0 mm | - | 0 W/m² | - |
| 1788202402 | 22.78° C | 69% | 1014.1 hPa | 0 mm | - | 0 W/m² | - |
| 1788202101 | 22.78° C | 69% | 1014.1 hPa | 0 mm | - | 0 W/m² | - |
| 1788201497 | 22.78° C | 69% | 1014.1 hPa | 0 mm | - | 0 W/m² | - |
| 1788201195 | 22.78° C | 69% | 1014.1 hPa | 0 mm | - | 0 W/m² | - |
| 1788200893 | 22.78° C | 69% | 1014.1 hPa | 0 mm | - | 0 W/m² | - |
| 1788200591 | 22.78° C | 69% | 1014.1 hPa | 0 mm | - | 0 W/m² | - |
| 1788200289 | 22.78° C | 69% | 1014.1 hPa | 0 mm | - | 0 W/m² | - |
| 1788199987 | 22.78° C | 69% | 1014.1 hPa | 0 mm | - | 0 W/m² | - |
| 1788199382 | 22.78° C | 68% | 1013.5 hPa | 0 mm | - | 0 W/m² | - |
| 1788199080 | 22.78° C | 67% | 1013.9 hPa | 0 mm | - | 0 W/m² | - |
| 1788198778 | 22.78° C | 66% | 1013.8 hPa | 0 mm | - | 0 W/m² | - |
| 1788198475 | 22.78° C | 65% | 1013.8 hPa | 0 mm | - | 0 W/m² | - |
| 1788198173 | 22.78° C | 65% | 1013.6 hPa | 0 mm | - | 0 W/m² | - |
| 1788197871 | 23.89° C | 64% | 1013.7 hPa | 0 mm | - | 1 W/m² | - |
| 1788197569 | 23.89° C | 64% | 1013.7 hPa | 0 mm | - | 2 W/m² | - |
| 1788197267 | 23.89° C | 63% | 1013.7 hPa | 0 mm | - | 3 W/m² | - |
| 1788196663 | 23.89° C | 62% | 1013.5 hPa | 0 mm | - | 9 W/m² | - |
| 1788196360 | 23.89° C | 62% | 1013.5 hPa | 0 mm | - | 14 W/m² | - |
| 1788195756 | 25° C | 60% | 1013.5 hPa | 0 mm | - | 21 W/m² | - |
* Rain latest hour (hover to see other rain measurements)
** Current wind speed in m/s (hover to see current wind gust speed)